Time;durP1;ratioP1;P1;durP2;ratioP2;P2;SDS_P1;SDS_P2;PMS_P1;PMS_P2;Temp;Humidity;BMP_temperature;BMP_pressure;BME280_temperature;BME280_humidity;BME280_pressure;Samples;Min_cycle;Max_cycle;Signal;HPM_P1;HPM_P2
2023/11/29 00:02:02;;;;;;;;;;;154.20;2252.80;;;;;;4973501;28;20359;-74
2023/11/29 00:04:27;;;;;;;;;;;154.30;2252.80;;;;;;4992916;28;19917;-74
2023/11/29 00:06:53;;;;;;;;;;;154.20;2252.80;;;;;;4988677;28;19913;-75
2023/11/29 00:09:18;;;;;;;;;;;154.10;2252.80;;;;;;4991296;28;20398;-75
2023/11/29 00:11:44;;;;;;;;;;;154.20;2252.80;;;;;;4974213;28;20390;-74
2023/11/29 00:14:10;;;;;;;;;;;154.30;2252.80;;;;;;4976927;28;20374;-75
2023/11/29 00:16:36;;;;;;;;;;;154.20;2252.80;;;;;;4994464;28;19906;-75
2023/11/29 00:19:02;;;;;;;;;;;154.20;2252.80;;;;;;4992864;28;19905;-75
2023/11/29 00:21:28;;;;;;;;;;;154.40;2252.80;;;;;;4992950;28;20044;-75
2023/11/29 00:23:54;;;;;;;;;;;154.50;2252.80;;;;;;4993927;28;20098;-75
2023/11/29 00:26:23;;;;;;;;;;;154.50;2252.80;;;;;;4976878;28;19916;-74
2023/11/29 00:28:49;;;;;;;;;;;154.50;2252.80;;;;;;4976385;28;19910;-74
2023/11/29 00:31:15;;;;;;;;;;;179.20;2252.80;;;;;;4976823;28;19921;-74
2023/11/29 00:33:41;;;;;;;;;;;154.50;2252.80;;;;;;4976882;28;19913;-75
2023/11/29 00:36:06;;;;;;;;;;;179.20;2252.80;;;;;;4994083;28;20402;-75
2023/11/29 00:38:32;;;;;;;;;;;179.30;2252.80;;;;;;4993832;28;19906;-74
2023/11/29 00:40:58;;;;;;;;;;;154.50;2252.80;;;;;;4994135;28;19921;-74
2023/11/29 00:43:23;;;;;;;;;;;154.50;2252.80;;;;;;4993955;28;19905;-75
2023/11/29 00:45:49;;;;;;;;;;;154.50;2252.80;;;;;;4976527;28;19952;-75
2023/11/29 00:48:15;;;;;;;;;;;154.40;2252.80;;;;;;4993839;28;20319;-75
2023/11/29 00:50:41;;;;;;;;;;;154.40;2252.80;;;;;;4976564;28;19949;-74
2023/11/29 00:53:06;;;;;;;;;;;154.30;2252.80;;;;;;4976297;28;19960;-75
2023/11/29 00:55:32;;;;;;;;;;;154.20;2252.80;;;;;;4994084;28;19906;-75
2023/11/29 00:57:57;;;;;;;;;;;154.20;2252.80;;;;;;4994023;28;19909;-74
2023/11/29 01:00:23;;;;;;;;;;;154.20;2252.80;;;;;;4993889;28;19906;-75
2023/11/29 01:02:49;;;;;;;;;;;154.10;2252.80;;;;;;4994006;28;19952;-74
2023/11/29 01:05:14;;;;;;;;;;;154.10;2252.80;;;;;;4993506;28;19914;-74
2023/11/29 01:07:40;;;;;;;;;;;154.20;2252.80;;;;;;4976209;28;19906;-74
2023/11/29 01:10:06;;;;;;;;;;;154.20;2252.80;;;;;;4993707;28;19912;-75
2023/11/29 01:12:31;;;;;;;;;;;154.20;2252.80;;;;;;4976698;28;20008;-75
2023/11/29 01:14:57;;;;;;;;;;;154.10;2252.80;;;;;;4993559;28;19941;-75
2023/11/29 01:17:22;;;;;;;;;;;154.20;2252.80;;;;;;4993826;28;20279;-74
2023/11/29 01:19:48;;;;;;;;;;;154.30;2252.80;;;;;;4993320;28;19913;-74
2023/11/29 01:22:14;;;;;;;;;;;154.20;2252.80;;;;;;4972989;28;19926;-74
2023/11/29 01:24:40;;;;;;;;;;;154.30;2252.80;;;;;;4975816;28;19914;-74
2023/11/29 01:27:05;;;;;;;;;;;154.30;2252.80;;;;;;4976474;28;19992;-75
2023/11/29 01:29:31;;;;;;;;;;;154.40;2252.80;;;;;;4977657;28;19961;-74
2023/11/29 01:31:56;;;;;;;;;;;154.20;2252.80;;;;;;4978163;28;19910;-74
2023/11/29 01:34:22;;;;;;;;;;;154.20;2252.80;;;;;;4977431;28;19906;-74
2023/11/29 01:36:48;;;;;;;;;;;154.30;2252.80;;;;;;4977832;28;19920;-74
2023/11/29 01:39:14;;;;;;;;;;;154.40;2252.80;;;;;;4977466;28;19913;-74
2023/11/29 01:41:42;;;;;;;;;;;154.50;2252.80;;;;;;4977623;28;20352;-74
2023/11/29 01:44:08;;;;;;;;;;;179.30;2252.80;;;;;;4977660;28;19906;-74
2023/11/29 01:46:34;;;;;;;;;;;179.40;2252.80;;;;;;4977783;28;19913;-74
2023/11/29 01:49:00;;;;;;;;;;;179.50;2252.80;;;;;;4976058;28;19906;-74
2023/11/29 01:51:26;;;;;;;;;;;179.40;2252.80;;;;;;4977151;28;20031;-74
2023/11/29 01:53:52;;;;;;;;;;;179.40;2252.80;;;;;;4975376;28;19917;-74
2023/11/29 01:56:19;;;;;;;;;;;179.40;2252.80;;;;;;4977650;28;19910;-74
2023/11/29 01:58:45;;;;;;;;;;;179.40;2252.80;;;;;;4977018;28;19910;-74
2023/11/29 02:01:11;;;;;;;;;;;179.40;2252.80;;;;;;4977089;28;20382;-75
2023/11/29 02:03:37;;;;;;;;;;;179.40;2252.80;;;;;;4977076;28;19910;-74
2023/11/29 02:06:02;;;;;;;;;;;179.20;2252.80;;;;;;4975552;28;19961;-75
2023/11/29 02:08:30;;;;;;;;;;;179.40;2252.80;;;;;;4975300;28;19953;-74
2023/11/29 02:10:55;;;;;;;;;;;154.50;2252.80;;;;;;4975938;28;19929;-74
2023/11/29 02:13:21;;;;;;;;;;;154.50;2252.80;;;;;;4977154;28;20376;-74
2023/11/29 02:15:47;;;;;;;;;;;154.50;2252.80;;;;;;4975803;28;19910;-74
2023/11/29 02:18:13;;;;;;;;;;;154.40;2252.80;;;;;;4976753;28;20026;-74
2023/11/29 02:20:39;;;;;;;;;;;154.40;2252.80;;;;;;4979275;28;20451;-74
2023/11/29 02:23:04;;;;;;;;;;;154.40;2252.80;;;;;;4978806;28;19961;-74
2023/11/29 02:25:30;;;;;;;;;;;154.30;2252.80;;;;;;4978718;28;19967;-74
2023/11/29 02:27:58;;;;;;;;;;;154.50;2252.80;;;;;;4996317;28;19910;-75
2023/11/29 02:30:23;;;;;;;;;;;154.20;2252.80;;;;;;4978915;28;19928;-75
2023/11/29 02:32:49;;;;;;;;;;;154.40;2252.80;;;;;;4978670;28;20283;-74
2023/11/29 02:35:14;;;;;;;;;;;154.40;2252.80;;;;;;4995263;28;19913;-74
2023/11/29 02:37:40;;;;;;;;;;;154.40;2252.80;;;;;;4995871;28;19956;-74
2023/11/29 02:40:06;;;;;;;;;;;154.30;2252.80;;;;;;4996243;28;20417;-75
2023/11/29 02:42:32;;;;;;;;;;;154.30;2252.80;;;;;;4995837;28;19905;-74
2023/11/29 02:44:57;;;;;;;;;;;154.20;2252.80;;;;;;4995978;28;20375;-74
2023/11/29 02:47:23;;;;;;;;;;;154.20;2252.80;;;;;;4995837;28;19905;-74
2023/11/29 02:49:48;;;;;;;;;;;154.20;2252.80;;;;;;4978392;28;20282;-74
2023/11/29 02:52:14;;;;;;;;;;;154.20;2252.80;;;;;;4995705;28;19909;-74
2023/11/29 02:54:40;;;;;;;;;;;154.20;2252.80;;;;;;4995972;28;19905;-75
2023/11/29 02:57:05;;;;;;;;;;;154.30;2252.80;;;;;;4995612;28;19905;-74
2023/11/29 02:59:31;;;;;;;;;;;154.20;2252.80;;;;;;4995805;28;19948;-75
2023/11/29 03:01:56;;;;;;;;;;;154.20;2252.80;;;;;;4995610;28;20311;-74
2023/11/29 03:04:22;;;;;;;;;;;154.10;2252.80;;;;;;4995654;28;19920;-74
2023/11/29 03:06:48;;;;;;;;;;;154.10;2252.80;;;;;;4995495;28;20347;-74
2023/11/29 03:09:13;;;;;;;;;;;154.00;2252.80;;;;;;4995325;28;19905;-75
2023/11/29 03:11:39;;;;;;;;;;;154.00;2252.80;;;;;;4995463;28;19963;-74
2023/11/29 03:14:04;;;;;;;;;;;154.10;2252.80;;;;;;4995516;28;19906;-74
2023/11/29 03:16:30;;;;;;;;;;;154.00;2252.80;;;;;;4995279;28;19949;-74
2023/11/29 03:18:55;;;;;;;;;;;153.90;2252.80;;;;;;4978183;28;20421;-75
2023/11/29 03:21:21;;;;;;;;;;;153.90;2252.80;;;;;;4995103;28;19918;-74
2023/11/29 03:23:47;;;;;;;;;;;153.80;2252.80;;;;;;4995327;28;19914;-74
2023/11/29 03:26:12;;;;;;;;;;;153.80;2252.80;;;;;;4977674;28;20338;-74
2023/11/29 03:28:38;;;;;;;;;;;153.80;2252.80;;;;;;4977822;28;19912;-74
2023/11/29 03:31:04;;;;;;;;;;;153.80;2252.80;;;;;;4977676;28;20359;-74
2023/11/29 03:33:30;;;;;;;;;;;128.80;2252.80;;;;;;4995144;28;20363;-75
2023/11/29 03:35:55;;;;;;;;;;;153.70;2252.80;;;;;;4994931;28;19906;-74
2023/11/29 03:38:21;;;;;;;;;;;153.80;2252.80;;;;;;4995297;28;19910;-74
2023/11/29 03:40:47;;;;;;;;;;;128.90;2252.80;;;;;;4994786;28;19910;-74
2023/11/29 03:43:12;;;;;;;;;;;153.60;2252.80;;;;;;4994857;28;19913;-74
2023/11/29 03:45:38;;;;;;;;;;;153.60;2252.80;;;;;;4994681;28;19920;-74
2023/11/29 03:48:04;;;;;;;;;;;128.90;2252.80;;;;;;4994499;28;19952;-75
2023/11/29 03:50:29;;;;;;;;;;;128.90;2252.80;;;;;;4994413;28;19910;-75
2023/11/29 03:52:55;;;;;;;;;;;128.80;2252.80;;;;;;4977331;28;19909;-74
2023/11/29 03:55:20;;;;;;;;;;;128.90;2252.80;;;;;;4994288;28;20029;-74
2023/11/29 03:57:46;;;;;;;;;;;128.70;2252.80;;;;;;4994841;28;19906;-75
2023/11/29 04:00:13;;;;;;;;;;;128.40;2252.80;;;;;;4994494;28;20390;-74
2023/11/29 04:02:39;;;;;;;;;;;128.40;2252.80;;;;;;4994623;28;19905;-75
2023/11/29 04:05:05;;;;;;;;;;;128.60;2252.80;;;;;;4994449;28;20421;-74
2023/11/29 04:07:31;;;;;;;;;;;128.60;2252.80;;;;;;4994364;28;19909;-74
2023/11/29 04:09:57;;;;;;;;;;;128.60;2252.80;;;;;;4976742;28;19905;-74
2023/11/29 04:12:23;;;;;;;;;;;128.60;2252.80;;;;;;4976962;28;20004;-75
2023/11/29 04:14:49;;;;;;;;;;;128.60;2252.80;;;;;;4976822;28;20007;-74
2023/11/29 04:17:14;;;;;;;;;;;128.60;2252.80;;;;;;4994338;28;20383;-74
2023/11/29 04:19:40;;;;;;;;;;;128.60;2252.80;;;;;;4994101;28;19906;-74
2023/11/29 04:22:06;;;;;;;;;;;128.50;2252.80;;;;;;4994319;28;20291;-75
2023/11/29 04:24:33;;;;;;;;;;;128.50;2252.80;;;;;;4976722;28;20287;-74
2023/11/29 04:26:58;;;;;;;;;;;128.60;2252.80;;;;;;4976654;28;19949;-74
2023/11/29 04:29:24;;;;;;;;;;;128.60;2252.80;;;;;;4994101;28;20367;-74
2023/11/29 04:31:50;;;;;;;;;;;128.60;2252.80;;;;;;4976732;28;19989;-74
2023/11/29 04:34:15;;;;;;;;;;;128.60;2252.80;;;;;;4994071;28;19906;-74
2023/11/29 04:36:42;;;;;;;;;;;128.40;2252.80;;;;;;4976737;28;20371;-74
2023/11/29 04:39:09;;;;;;;;;;;128.50;2252.80;;;;;;4976715;28;19964;-74
2023/11/29 04:41:35;;;;;;;;;;;128.60;2252.80;;;;;;4993840;28;20275;-74
2023/11/29 04:44:01;;;;;;;;;;;128.70;2252.80;;;;;;4976374;28;19906;-74
2023/11/29 04:46:26;;;;;;;;;;;128.60;2252.80;;;;;;4993863;28;19960;-74
2023/11/29 04:48:52;;;;;;;;;;;128.60;2252.80;;;;;;4994177;28;19960;-74
2023/11/29 04:51:18;;;;;;;;;;;128.70;2252.80;;;;;;4993853;28;19914;-75
2023/11/29 04:53:43;;;;;;;;;;;128.60;2252.80;;;;;;4976350;28;19944;-74
2023/11/29 04:56:09;;;;;;;;;;;128.70;2252.80;;;;;;4976523;28;19949;-74
2023/11/29 04:58:39;;;;;;;;;;;128.80;2252.80;;;;;;4994024;28;20345;-75
2023/11/29 05:01:07;;;;;;;;;;;128.90;2252.80;;;;;;4997937;28;20014;-74
2023/11/29 05:03:32;;;;;;;;;;;128.90;2252.80;;;;;;4980235;28;19905;-74
2023/11/29 05:05:58;;;;;;;;;;;128.80;2252.80;;;;;;4980305;28;19921;-74
2023/11/29 05:08:24;;;;;;;;;;;128.90;2252.80;;;;;;4980280;28;19909;-74
2023/11/29 05:10:49;;;;;;;;;;;128.90;2252.80;;;;;;4997751;28;20282;-75
2023/11/29 05:13:15;;;;;;;;;;;128.90;2252.80;;;;;;4980204;28;19965;-74
2023/11/29 05:15:47;;;;;;;;;;;128.90;2252.80;;;;;;4997728;28;19912;-74
2023/11/29 05:18:13;;;;;;;;;;;128.90;2252.80;;;;;;4997591;28;20359;-74
2023/11/29 05:20:38;;;;;;;;;;;128.90;2252.80;;;;;;4997450;28;19917;-74
2023/11/29 05:23:04;;;;;;;;;;;128.90;2252.80;;;;;;4997742;28;20363;-75
2023/11/29 05:25:30;;;;;;;;;;;128.70;2252.80;;;;;;4979944;28;20294;-75
2023/11/29 05:27:55;;;;;;;;;;;128.70;2252.80;;;;;;4997405;28;19906;-77
2023/11/29 05:30:22;;;;;;;;;;;128.50;2252.80;;;;;;4980070;28;20418;-74
2023/11/29 05:32:48;;;;;;;;;;;128.60;2252.80;;;;;;4979732;28;19906;-73
2023/11/29 05:35:14;;;;;;;;;;;128.70;2252.80;;;;;;4979849;28;20279;-74
2023/11/29 05:37:40;;;;;;;;;;;128.70;2252.80;;;;;;4997207;28;19905;-74
2023/11/29 05:40:08;;;;;;;;;;;128.70;2252.80;;;;;;4997361;28;19906;-74
2023/11/29 05:42:38;;;;;;;;;;;128.70;2252.80;;;;;;4979615;28;19906;-74
2023/11/29 05:45:05;;;;;;;;;;;128.70;2252.80;;;;;;4979661;28;19973;-74
2023/11/29 05:47:31;;;;;;;;;;;128.60;2252.80;;;;;;4984483;28;19906;-74
2023/11/29 05:49:59;;;;;;;;;;;128.50;2252.80;;;;;;4992079;28;20004;-73
2023/11/29 05:52:25;;;;;;;;;;;128.60;2252.80;;;;;;4990049;28;19910;-74
2023/11/29 05:54:50;;;;;;;;;;;128.50;2252.80;;;;;;4983475;28;19929;-74
2023/11/29 05:57:16;;;;;;;;;;;128.50;2252.80;;;;;;4986263;28;20347;-74
2023/11/29 05:59:42;;;;;;;;;;;128.50;2252.80;;;;;;4986396;28;20378;-73
2023/11/29 06:02:07;;;;;;;;;;;128.40;2252.80;;;;;;4988957;28;19910;-74
2023/11/29 06:04:33;;;;;;;;;;;128.60;2252.80;;;;;;4993452;28;19925;-74
2023/11/29 06:06:59;;;;;;;;;;;128.60;2252.80;;;;;;4990536;28;19991;-74
2023/11/29 06:09:31;;;;;;;;;;;128.70;2252.80;;;;;;4990640;28;19993;-74
2023/11/29 06:11:59;;;;;;;;;;;128.50;2252.80;;;;;;4990031;28;19914;-74
2023/11/29 06:14:25;;;;;;;;;;;128.60;2252.80;;;;;;4972926;28;20027;-74
2023/11/29 06:16:51;;;;;;;;;;;128.60;2252.80;;;;;;4990914;28;20359;-73
2023/11/29 06:19:17;;;;;;;;;;;128.60;2252.80;;;;;;4978024;28;19906;-73
2023/11/29 06:21:42;;;;;;;;;;;128.50;2252.80;;;;;;4991492;28;20291;-74
2023/11/29 06:24:10;;;;;;;;;;;128.40;2252.80;;;;;;4993543;28;19972;-73
2023/11/29 06:26:36;;;;;;;;;;;128.60;2252.80;;;;;;4986265;28;19910;-74
2023/11/29 06:29:01;;;;;;;;;;;128.50;2252.80;;;;;;4991049;28;20359;-74
2023/11/29 06:31:27;;;;;;;;;;;128.30;2252.80;;;;;;4988219;28;19910;-74
2023/11/29 06:33:55;;;;;;;;;;;128.40;2252.80;;;;;;4988515;28;19949;-74
2023/11/29 06:36:21;;;;;;;;;;;128.50;2252.80;;;;;;4984893;28;19910;-74
2023/11/29 06:38:47;;;;;;;;;;;128.40;2252.80;;;;;;4992884;28;20024;-74
2023/11/29 06:41:12;;;;;;;;;;;128.50;2252.80;;;;;;4966793;28;20423;-74
2023/11/29 06:43:39;;;;;;;;;;;128.60;2252.80;;;;;;4992399;28;19913;-73
2023/11/29 06:46:05;;;;;;;;;;;128.60;2252.80;;;;;;4991640;28;19921;-74
2023/11/29 06:48:31;;;;;;;;;;;128.60;2252.80;;;;;;4991769;28;20318;-74
2023/11/29 06:51:00;;;;;;;;;;;128.60;2252.80;;;;;;4989430;28;19914;-76
2023/11/29 06:53:28;;;;;;;;;;;128.60;2252.80;;;;;;4977555;28;20372;-75
2023/11/29 06:55:55;;;;;;;;;;;128.40;2252.80;;;;;;4989233;28;19910;-74
2023/11/29 06:58:21;;;;;;;;;;;128.30;2252.80;;;;;;4976005;28;19906;-75
2023/11/29 07:00:46;;;;;;;;;;;128.10;2252.80;;;;;;4992604;28;19959;-75
2023/11/29 07:03:13;;;;;;;;;;;128.20;2252.80;;;;;;4989141;28;20359;-75
2023/11/29 07:05:39;;;;;;;;;;;128.20;2252.80;;;;;;4975658;28;19918;-75
2023/11/29 07:08:06;;;;;;;;;;;128.20;2252.80;;;;;;4986105;28;19906;-75
2023/11/29 07:10:33;;;;;;;;;;;128.10;2252.80;;;;;;4993301;28;20136;-75
2023/11/29 07:12:59;;;;;;;;;;;128.10;2252.80;;;;;;4967270;28;19910;-76
2023/11/29 07:15:25;;;;;;;;;;;128.00;2252.80;;;;;;4987886;28;19906;-77
2023/11/29 07:17:51;;;;;;;;;;;128.00;2252.80;;;;;;4969705;28;19906;-77
2023/11/29 07:20:17;;;;;;;;;;;128.00;2252.80;;;;;;4991961;28;20419;-77
2023/11/29 07:22:43;;;;;;;;;;;128.30;2252.80;;;;;;4992819;28;19928;-76
2023/11/29 07:25:09;;;;;;;;;;;128.30;2252.80;;;;;;4987004;28;19914;-76
2023/11/29 07:27:34;;;;;;;;;;;128.20;2252.80;;;;;;4990073;28;19948;-76
2023/11/29 07:30:00;;;;;;;;;;;128.20;2252.80;;;;;;4978842;28;20008;-76
2023/11/29 07:32:26;;;;;;;;;;;128.30;2252.80;;;;;;4961125;28;19977;-77
2023/11/29 07:34:52;;;;;;;;;;;128.40;2252.80;;;;;;4990409;28;19968;-75
2023/11/29 07:37:20;;;;;;;;;;;128.30;2252.80;;;;;;4992315;28;19921;-75
2023/11/29 07:39:46;;;;;;;;;;;128.50;2252.80;;;;;;4992428;28;20303;-76
2023/11/29 07:42:12;;;;;;;;;;;128.60;2252.80;;;;;;4962018;28;19960;-76
2023/11/29 07:44:40;;;;;;;;;;;128.60;2252.80;;;;;;4985848;28;19909;-76
2023/11/29 07:47:07;;;;;;;;;;;128.40;2252.80;;;;;;4984263;28;19910;-74
2023/11/29 07:49:33;;;;;;;;;;;128.50;2252.80;;;;;;4994736;28;19948;-75
2023/11/29 07:51:58;;;;;;;;;;;128.40;2252.80;;;;;;4984570;28;19910;-78
2023/11/29 07:54:24;;;;;;;;;;;128.40;2252.80;;;;;;4963263;28;19913;-75
2023/11/29 07:56:50;;;;;;;;;;;128.50;2252.80;;;;;;4969498;28;19910;-74
2023/11/29 07:59:16;;;;;;;;;;;128.40;2252.80;;;;;;4987291;28;19916;-75
2023/11/29 08:01:41;;;;;;;;;;;128.10;2252.80;;;;;;4976457;28;19916;-76
2023/11/29 08:04:07;;;;;;;;;;;128.00;2252.80;;;;;;4977082;28;20382;-76
2023/11/29 08:06:33;;;;;;;;;;;128.10;2252.80;;;;;;4988324;28;19914;-75
2023/11/29 08:08:59;;;;;;;;;;;128.10;2252.80;;;;;;4975920;28;19909;-75
2023/11/29 08:11:24;;;;;;;;;;;103.30;2227.20;;;;;;4963347;28;19985;-75
2023/11/29 08:13:50;;;;;;;;;;;103.30;2227.20;;;;;;4969065;28;19906;-76
2023/11/29 08:16:16;;;;;;;;;;;103.30;2227.20;;;;;;4973706;28;19906;-77
2023/11/29 08:18:41;;;;;;;;;;;103.20;2227.20;;;;;;4984048;28;19942;-76
2023/11/29 08:21:08;;;;;;;;;;;103.30;2227.20;;;;;;4989066;28;20292;-75
2023/11/29 08:23:33;;;;;;;;;;;128.00;2252.80;;;;;;4983941;28;19910;-75
2023/11/29 08:25:59;;;;;;;;;;;128.10;2252.80;;;;;;4967012;28;20000;-74
2023/11/29 08:28:24;;;;;;;;;;;128.10;2252.80;;;;;;4991825;28;20020;-75
2023/11/29 08:30:50;;;;;;;;;;;128.20;2252.80;;;;;;4962347;28;19932;-77
2023/11/29 08:33:16;;;;;;;;;;;128.40;2252.80;;;;;;4986253;28;19913;-75
2023/11/29 08:35:42;;;;;;;;;;;128.60;2252.80;;;;;;4973215;28;19906;-74
2023/11/29 08:38:08;;;;;;;;;;;128.50;2252.80;;;;;;4972001;28;20288;-75
2023/11/29 08:40:34;;;;;;;;;;;128.60;2252.80;;;;;;4960114;28;19906;-76
2023/11/29 08:43:05;;;;;;;;;;;128.60;2252.80;;;;;;4970567;28;19910;-76
2023/11/29 08:45:31;;;;;;;;;;;128.60;2252.80;;;;;;4987997;28;19921;-75
2023/11/29 08:47:57;;;;;;;;;;;128.60;2252.80;;;;;;4974974;28;19909;-75
2023/11/29 08:50:22;;;;;;;;;;;128.60;2252.80;;;;;;4990726;28;19916;-76
2023/11/29 08:52:50;;;;;;;;;;;128.60;2252.80;;;;;;4974987;28;19914;-76
2023/11/29 08:55:15;;;;;;;;;;;128.60;2252.80;;;;;;4991034;28;19941;-75
2023/11/29 08:57:41;;;;;;;;;;;128.70;2252.80;;;;;;4990666;28;20398;-76
2023/11/29 09:00:08;;;;;;;;;;;128.80;2252.80;;;;;;4972441;28;19963;-76
2023/11/29 09:02:34;;;;;;;;;;;153.90;2252.80;;;;;;4987487;28;19906;-73
2023/11/29 09:05:03;;;;;;;;;;;179.20;2252.80;;;;;;4992184;28;19921;-75
2023/11/29 09:07:28;;;;;;;;;;;154.20;2252.80;;;;;;4988125;28;19906;-75
2023/11/29 09:09:56;;;;;;;;;;;154.10;2252.80;;;;;;4967580;28;19913;-75
2023/11/29 09:12:23;;;;;;;;;;;154.00;2252.80;;;;;;4989696;28;20360;-74
2023/11/29 09:14:48;;;;;;;;;;;154.20;2252.80;;;;;;4975563;28;19906;-75
2023/11/29 09:17:16;;;;;;;;;;;154.30;2252.80;;;;;;4970035;28;20036;-74
2023/11/29 09:19:43;;;;;;;;;;;154.40;2252.80;;;;;;4966448;28;20000;-74
2023/11/29 09:22:09;;;;;;;;;;;154.30;2252.80;;;;;;4970741;28;19928;-75
2023/11/29 09:24:35;;;;;;;;;;;154.40;2252.80;;;;;;4978884;28;19914;-74
2023/11/29 09:27:01;;;;;;;;;;;179.40;2252.80;;;;;;4962326;28;19906;-75
2023/11/29 09:29:28;;;;;;;;;;;179.30;2252.80;;;;;;4982290;28;19914;-74
2023/11/29 09:31:53;;;;;;;;;;;179.30;2252.80;;;;;;4968198;28;19929;-75
2023/11/29 09:34:20;;;;;;;;;;;154.30;2252.80;;;;;;4976281;28;19972;-75
2023/11/29 09:36:46;;;;;;;;;;;154.00;2252.80;;;;;;4985262;28;19952;-74
2023/11/29 09:39:13;;;;;;;;;;;154.10;2252.80;;;;;;4970510;28;19937;-75
2023/11/29 09:41:43;;;;;;;;;;;153.80;2252.80;;;;;;4967239;28;20000;-74
2023/11/29 09:44:09;;;;;;;;;;;153.70;2252.80;;;;;;4982460;28;19968;-74
2023/11/29 09:46:35;;;;;;;;;;;153.70;2252.80;;;;;;4992368;28;19917;-74
2023/11/29 09:49:01;;;;;;;;;;;128.80;2252.80;;;;;;4977776;28;19910;-74
2023/11/29 09:51:27;;;;;;;;;;;153.60;2252.80;;;;;;4979761;28;19913;-74
2023/11/29 09:53:52;;;;;;;;;;;153.70;2252.80;;;;;;4969811;28;19916;-75
2023/11/29 09:56:18;;;;;;;;;;;153.60;2252.80;;;;;;4991987;28;19906;-74
2023/11/29 09:58:44;;;;;;;;;;;153.70;2252.80;;;;;;4970785;28;20397;-75
2023/11/29 10:01:11;;;;;;;;;;;153.70;2252.80;;;;;;4981849;28;19913;-74
2023/11/29 10:03:37;;;;;;;;;;;153.80;2252.80;;;;;;4993232;28;19969;-75
2023/11/29 10:06:04;;;;;;;;;;;153.70;2252.80;;;;;;4990436;28;19961;-74
2023/11/29 10:08:30;;;;;;;;;;;153.80;2252.80;;;;;;4971392;28;19952;-74
2023/11/29 10:10:55;;;;;;;;;;;153.70;2252.80;;;;;;4973124;28;19945;-74
2023/11/29 10:13:22;;;;;;;;;;;153.90;2252.80;;;;;;4988592;28;19913;-74
2023/11/29 10:15:51;;;;;;;;;;;153.90;2252.80;;;;;;4992261;28;19913;-74
2023/11/29 10:18:18;;;;;;;;;;;153.90;2252.80;;;;;;4984424;28;19913;-74
2023/11/29 10:20:48;;;;;;;;;;;153.90;2252.80;;;;;;4969482;28;19910;-74
2023/11/29 10:23:14;;;;;;;;;;;154.00;2252.80;;;;;;4992332;28;19949;-74
2023/11/29 10:25:40;;;;;;;;;;;154.30;2252.80;;;;;;4992154;28;20007;-73
2023/11/29 10:28:05;;;;;;;;;;;154.10;2252.80;;;;;;4992932;28;19905;-74
2023/11/29 10:30:31;;;;;;;;;;;153.70;2252.80;;;;;;4968681;28;19916;-74
2023/11/29 10:32:58;;;;;;;;;;;153.60;2252.80;;;;;;4991925;28;19931;-73
2023/11/29 10:35:26;;;;;;;;;;;153.70;2252.80;;;;;;4992431;28;19905;-74
2023/11/29 10:38:12;;;;;;;;;;;153.80;2252.80;;;;;;4990979;28;19961;-74
2023/11/29 10:40:39;;;;;;;;;;;179.30;2252.80;;;;;;4974190;28;19997;-73
2023/11/29 10:43:05;;;;;;;;;;;179.90;2252.80;;;;;;4992438;28;19917;-74
2023/11/29 10:45:33;;;;;;;;;;;179.50;2252.80;;;;;;4993875;28;19914;-74
2023/11/29 10:48:02;;;;;;;;;;;179.40;2252.80;;;;;;4993681;28;19910;-74
2023/11/29 10:50:28;;;;;;;;;;;179.40;2252.80;;;;;;4993846;28;19917;-74
2023/11/29 10:52:54;;;;;;;;;;;154.50;2252.80;;;;;;4975614;28;20124;-74
2023/11/29 10:55:21;;;;;;;;;;;179.70;2252.80;;;;;;4994338;28;19913;-73
2023/11/29 10:58:11;;;;;;;;;;;204.90;2252.80;;;;;;4994833;28;19905;-73
2023/11/29 11:00:37;;;;;;;;;;;179.90;2252.80;;;;;;4969192;28;19906;-74
2023/11/29 11:03:03;;;;;;;;;;;179.30;2252.80;;;;;;4961281;28;20287;-73
2023/11/29 11:05:29;;;;;;;;;;;179.40;2252.80;;;;;;4991127;28;19914;-74
2023/11/29 11:07:54;;;;;;;;;;;180.00;2252.80;;;;;;4984328;28;19906;-74
2023/11/29 11:10:24;;;;;;;;;;;180.10;2252.80;;;;;;4991339;28;20377;-74
2023/11/29 11:12:50;;;;;;;;;;;205.20;2252.80;;;;;;4979710;28;20316;-74
2023/11/29 11:15:25;;;;;;;;;;;205.10;2252.80;;;;;;4979031;28;20004;-73
2023/11/29 11:18:10;;;;;;;;;;;204.90;2252.80;;;;;;4993706;28;19949;-74
2023/11/29 11:20:39;;;;;;;;;;;204.80;2252.80;;;;;;4987683;28;19916;-74
2023/11/29 11:23:05;;;;;;;;;;;205.20;2252.80;;;;;;4990674;28;20406;-73
2023/11/29 11:25:31;;;;;;;;;;;204.90;2252.80;;;;;;4991935;28;19948;-74
2023/11/29 11:27:57;;;;;;;;;;;180.10;2252.80;;;;;;4989090;28;19992;-74
2023/11/29 11:30:25;;;;;;;;;;;180.10;2252.80;;;;;;4974340;28;19960;-75
2023/11/29 11:32:56;;;;;;;;;;;180.00;2252.80;;;;;;4973686;28;20370;-74
2023/11/29 11:35:24;;;;;;;;;;;179.90;2252.80;;;;;;4991545;28;20060;-74
2023/11/29 11:37:54;;;;;;;;;;;180.10;2252.80;;;;;;4991123;28;19906;-73
2023/11/29 11:40:20;;;;;;;;;;;204.90;2252.80;;;;;;4990401;28;19910;-74
2023/11/29 11:42:46;;;;;;;;;;;205.30;2252.80;;;;;;4989493;28;20419;-74
2023/11/29 11:45:13;;;;;;;;;;;204.90;2252.80;;;;;;4986916;28;19918;-74
2023/11/29 11:47:39;;;;;;;;;;;204.80;2252.80;;;;;;4988422;28;19960;-74
2023/11/29 11:50:05;;;;;;;;;;;180.00;2252.80;;;;;;4982901;28;19995;-73
2023/11/29 11:52:31;;;;;;;;;;;179.90;2252.80;;;;;;4976006;28;19932;-73
2023/11/29 11:55:09;;;;;;;;;;;179.80;2252.80;;;;;;4979113;28;20073;-73
2023/11/29 11:57:36;;;;;;;;;;;179.90;2252.80;;;;;;4989574;28;19921;-74
2023/11/29 12:00:05;;;;;;;;;;;204.80;2252.80;;;;;;4986516;28;19906;-73
2023/11/29 12:02:31;;;;;;;;;;;204.80;2252.80;;;;;;4982404;28;19906;-74
2023/11/29 12:04:57;;;;;;;;;;;204.90;2252.80;;;;;;4988940;28;19918;-74
2023/11/29 12:07:23;;;;;;;;;;;205.00;2252.80;;;;;;4963337;28;19911;-75
2023/11/29 12:09:49;;;;;;;;;;;205.00;2252.80;;;;;;4983944;28;20005;-74
2023/11/29 12:12:15;;;;;;;;;;;204.80;2252.80;;;;;;4988348;28;19992;-74
2023/11/29 12:14:48;;;;;;;;;;;180.10;2252.80;;;;;;4968826;28;19912;-74
2023/11/29 12:17:14;;;;;;;;;;;180.00;2252.80;;;;;;4988435;28;19975;-74
2023/11/29 12:19:44;;;;;;;;;;;179.90;2252.80;;;;;;4993061;28;19945;-76
2023/11/29 12:22:11;;;;;;;;;;;179.90;2252.80;;;;;;4969081;28;19921;-74
2023/11/29 12:24:39;;;;;;;;;;;179.80;2252.80;;;;;;4988077;28;19906;-74
2023/11/29 12:27:07;;;;;;;;;;;179.70;2252.80;;;;;;4986518;28;19905;-74
2023/11/29 12:29:36;;;;;;;;;;;179.70;2252.80;;;;;;4988812;28;19913;-74
2023/11/29 12:32:02;;;;;;;;;;;179.60;2252.80;;;;;;4990530;28;19909;-74
2023/11/29 12:34:27;;;;;;;;;;;179.20;2252.80;;;;;;4991494;28;20374;-74
2023/11/29 12:36:57;;;;;;;;;;;179.60;2252.80;;;;;;4987740;28;20000;-74
2023/11/29 12:39:29;;;;;;;;;;;179.40;2252.80;;;;;;4991259;28;20325;-73
2023/11/29 12:41:56;;;;;;;;;;;179.50;2252.80;;;;;;4985856;28;19913;-72
2023/11/29 12:44:24;;;;;;;;;;;179.50;2252.80;;;;;;4987195;28;19906;-72
2023/11/29 12:46:50;;;;;;;;;;;179.40;2252.80;;;;;;4988275;28;20256;-73
2023/11/29 12:49:16;;;;;;;;;;;179.30;2252.80;;;;;;4992478;28;19932;-74
2023/11/29 12:51:41;;;;;;;;;;;179.20;2252.80;;;;;;4987890;28;20004;-72
2023/11/29 12:54:07;;;;;;;;;;;179.20;2252.80;;;;;;4983644;28;20047;-72
2023/11/29 12:56:33;;;;;;;;;;;179.30;2252.80;;;;;;4987679;28;19913;-72
2023/11/29 12:59:00;;;;;;;;;;;179.50;2252.80;;;;;;4982586;28;19957;-73
2023/11/29 13:01:26;;;;;;;;;;;179.40;2252.80;;;;;;4983637;28;19906;-74
2023/11/29 13:03:51;;;;;;;;;;;179.40;2252.80;;;;;;4984313;28;20356;-76
2023/11/29 13:06:17;;;;;;;;;;;179.30;2252.80;;;;;;4987214;28;20091;-75
2023/11/29 13:08:43;;;;;;;;;;;179.40;2252.80;;;;;;4966100;28;19910;-74
2023/11/29 13:11:08;;;;;;;;;;;179.50;2252.80;;;;;;4979000;28;19997;-76
2023/11/29 13:13:34;;;;;;;;;;;154.50;2252.80;;;;;;4986557;28;19909;-74
2023/11/29 13:15:59;;;;;;;;;;;154.50;2252.80;;;;;;4989083;28;20356;-73
2023/11/29 13:18:25;;;;;;;;;;;179.20;2252.80;;;;;;4968012;28;19965;-73
2023/11/29 13:20:51;;;;;;;;;;;154.50;2252.80;;;;;;4946948;28;1212499;-73
2023/11/29 13:23:16;;;;;;;;;;;154.50;2252.80;;;;;;4995485;28;19909;-73
2023/11/29 13:25:42;;;;;;;;;;;154.50;2252.80;;;;;;4986551;28;20276;-73
2023/11/29 13:28:07;;;;;;;;;;;179.40;2252.80;;;;;;4989422;28;19910;-74
2023/11/29 13:30:33;;;;;;;;;;;179.60;2252.80;;;;;;4969702;28;19905;-73
2023/11/29 13:32:59;;;;;;;;;;;179.60;2252.80;;;;;;4999850;28;19912;-73
2023/11/29 13:35:25;;;;;;;;;;;179.70;2252.80;;;;;;5002113;28;19913;-73
2023/11/29 13:37:51;;;;;;;;;;;179.60;2252.80;;;;;;4992465;28;20331;-74